createdAt,value
2022-09-17T00:01:26.344Z,98422.03
2022-09-17T00:03:56.528Z,98416.41
2022-09-17T00:06:25.460Z,98429.56
2022-09-17T00:08:53.896Z,98433.72
2022-09-17T00:11:29.733Z,98428.75
2022-09-17T00:14:00.553Z,98431.16
2022-09-17T00:16:34.531Z,98426.81
2022-09-17T00:19:03.246Z,98429.72
2022-09-17T00:21:30.464Z,98426.03
2022-09-17T00:24:04.523Z,98426.19
2022-09-17T00:26:33.751Z,98431.47
2022-09-17T00:29:01.663Z,98424.91
2022-09-17T00:31:32.985Z,98430.03
2022-09-17T00:34:01.653Z,98429.72
2022-09-17T00:36:29.309Z,98423.47
2022-09-17T00:38:59.693Z,98440.91
2022-09-17T00:41:31.264Z,98437.22
2022-09-17T00:44:03.082Z,98432.59
2022-09-17T00:46:42.753Z,98440.56
2022-09-17T00:49:21.975Z,98442.97
2022-09-17T00:52:10.865Z,98441.88
2022-09-17T00:54:44.217Z,98437.41
2022-09-17T00:57:12.058Z,98445.41
2022-09-17T00:59:39.163Z,98445.41
2022-09-17T01:02:06.575Z,98447.00
2022-09-17T01:04:33.510Z,98447.47
2022-09-17T01:07:14.602Z,98448.28
2022-09-17T01:10:06.125Z,98455.63
2022-09-17T01:13:06.293Z,98453.38
2022-09-17T01:16:03.623Z,98455.28
2022-09-17T01:18:56.823Z,98457.06
2022-09-17T01:21:49.870Z,98464.41
2022-09-17T01:24:41.425Z,98462.97
2022-09-17T01:27:53.089Z,98464.91
2022-09-17T01:30:51.885Z,98463.44
2022-09-17T01:33:33.666Z,98473.69
2022-09-17T01:36:48.345Z,98476.41
2022-09-17T01:39:34.535Z,98474.34
2022-09-17T01:42:10.286Z,98468.44
2022-09-17T01:45:10.774Z,98473.69
2022-09-17T01:47:52.345Z,98465.38
2022-09-17T01:50:30.961Z,98471.31
2022-09-17T01:52:59.991Z,98471.47
2022-09-17T01:55:35.800Z,98465.84
2022-09-17T01:58:39.623Z,98466.31
2022-09-17T02:01:12.276Z,98474.78
2022-09-17T02:04:03.756Z,98465.31
2022-09-17T02:06:37.966Z,98462.28
2022-09-17T02:09:50.994Z,98468.50
2022-09-17T02:12:28.405Z,98464.06
2022-09-17T02:15:01.190Z,98469.84
2022-09-17T02:17:37.078Z,98461.69
2022-09-17T02:20:06.667Z,98471.19
2022-09-17T02:22:48.289Z,98461.09
2022-09-17T02:25:44.138Z,98466.88
2022-09-17T02:28:51.351Z,98459.19
2022-09-17T02:31:18.561Z,98450.72
2022-09-17T02:33:50.949Z,98454.06
2022-09-17T02:36:19.294Z,98452.47
2022-09-17T02:38:46.599Z,98447.03
2022-09-17T02:41:21.820Z,98445.28
2022-09-17T02:44:13.030Z,98446.69
2022-09-17T02:47:12.037Z,98440.28
2022-09-17T02:50:28.461Z,98441.25
2022-09-17T02:53:23.815Z,98444.44
2022-09-17T02:56:23.639Z,98452.13
2022-09-17T02:59:24.101Z,98444.75
2022-09-17T03:02:00.699Z,98439.13
2022-09-17T03:04:30.031Z,98453.19
2022-09-17T03:06:59.505Z,98458.63
2022-09-17T03:09:26.965Z,98456.53
2022-09-17T03:11:53.922Z,98459.09
2022-09-17T03:14:20.721Z,98460.22
2022-09-17T03:16:48.221Z,98458.47
2022-09-17T03:19:15.435Z,98461.03
2022-09-17T03:21:42.311Z,98460.38
2022-09-17T03:24:10.860Z,98467.53
2022-09-17T03:26:38.730Z,98456.66
2022-09-17T03:29:05.920Z,98467.88
2022-09-17T03:31:32.798Z,98467.38
2022-09-17T03:33:59.739Z,98468.78
2022-09-17T03:36:26.586Z,98473.44
2022-09-17T03:38:57.770Z,98475.81
2022-09-17T03:41:25.754Z,98472.47
2022-09-17T03:43:55.759Z,98474.34
2022-09-17T03:46:22.642Z,98476.91
2022-09-17T03:48:49.509Z,98479.94
2022-09-17T03:51:16.505Z,98479.44
2022-09-17T03:53:43.373Z,98482.34
2022-09-17T03:56:10.410Z,98476.53
2022-09-17T03:58:37.320Z,98483.41
2022-09-17T04:01:04.849Z,98480.56
2022-09-17T04:03:32.570Z,98487.03
2022-09-17T04:06:00.002Z,98495.19
2022-09-17T04:08:27.126Z,98492.66
2022-09-17T04:10:54.224Z,98493.63
2022-09-17T04:13:21.466Z,98502.63
2022-09-17T04:15:49.397Z,98497.38
2022-09-17T04:18:16.788Z,98485.22
2022-09-17T04:20:43.850Z,98489.53
2022-09-17T04:23:14.132Z,98492.59
2022-09-17T04:25:40.944Z,98486.19
2022-09-17T04:28:07.950Z,98482.97
2022-09-17T04:30:35.087Z,98488.06
2022-09-17T04:33:02.253Z,98490.00
2022-09-17T04:35:29.057Z,98494.69
2022-09-17T04:37:58.118Z,98480.91
2022-09-17T04:40:26.968Z,98487.59
2022-09-17T04:42:56.051Z,98497.94
2022-09-17T04:45:23.527Z,98500.97
2022-09-17T04:47:53.430Z,98508.81
2022-09-17T04:50:21.455Z,98516.81
2022-09-17T04:52:49.060Z,98516.53
2022-09-17T04:55:16.819Z,98512.38
2022-09-17T04:57:49.178Z,98521.81
2022-09-17T05:00:18.066Z,98515.59
2022-09-17T05:02:49.166Z,98531.50
2022-09-17T05:05:17.783Z,98517.66
2022-09-17T05:07:45.357Z,98523.09
2022-09-17T05:10:15.160Z,98531.22
2022-09-17T05:12:48.214Z,98531.94
2022-09-17T05:15:15.089Z,98533.25
2022-09-17T05:17:42.078Z,98539.59
2022-09-17T05:20:09.867Z,98538.69
2022-09-17T05:22:51.596Z,98541.75
2022-09-17T05:25:24.448Z,98542.50
2022-09-17T05:27:53.505Z,98545.91
2022-09-17T05:30:21.138Z,98542.50
2022-09-17T05:32:48.657Z,98542.19
2022-09-17T05:35:15.842Z,98546.19
2022-09-17T05:37:43.018Z,98549.28
2022-09-17T05:40:10.633Z,98551.00
2022-09-17T05:42:38.786Z,98548.91
2022-09-17T05:45:08.208Z,98554.78
2022-09-17T05:47:35.365Z,98555.25
2022-09-17T05:50:02.390Z,98557.59
2022-09-17T05:52:29.928Z,98556.56
2022-09-17T05:54:57.181Z,98548.91
2022-09-17T05:57:25.020Z,98557.44
2022-09-17T05:59:51.965Z,98556.94
2022-09-17T06:02:18.955Z,98558.03
2022-09-17T06:04:46.642Z,98566.03
2022-09-17T06:07:13.605Z,98567.31
2022-09-17T06:09:43.187Z,98573.34
2022-09-17T06:12:09.931Z,98570.63
2022-09-17T06:14:36.799Z,98561.88
2022-09-17T06:17:03.729Z,98570.28
2022-09-17T06:19:30.615Z,98572.88
2022-09-17T06:21:57.502Z,98566.09
2022-09-17T06:24:24.403Z,98573.72
2022-09-17T06:26:52.320Z,98581.25
2022-09-17T06:29:20.544Z,98580.56
2022-09-17T06:31:49.177Z,98587.34
2022-09-17T06:34:17.155Z,98586.84
2022-09-17T06:36:44.226Z,98585.94
2022-09-17T06:39:11.755Z,98579.41
2022-09-17T06:41:38.961Z,98591.50
2022-09-17T06:44:05.784Z,98588.91
2022-09-17T06:46:36.947Z,98590.72
2022-09-17T06:49:03.941Z,98602.00
2022-09-17T06:51:31.329Z,98599.97
2022-09-17T06:53:58.299Z,98597.56
2022-09-17T06:56:26.518Z,98610.13
2022-09-17T06:58:54.467Z,98606.31
2022-09-17T07:01:21.343Z,98598.00
2022-09-17T07:03:49.683Z,98597.00
2022-09-17T07:06:16.470Z,98597.91
2022-09-17T07:08:43.774Z,98594.56
2022-09-17T07:11:10.838Z,98596.81
2022-09-17T07:13:37.652Z,98603.66
2022-09-17T07:16:06.402Z,98608.25
2022-09-17T07:18:33.993Z,98610.34
2022-09-17T07:21:04.145Z,98609.94
2022-09-17T07:23:34.732Z,98613.53
2022-09-17T07:26:09.006Z,98624.66
2022-09-17T07:28:39.201Z,98618.75
2022-09-17T07:31:08.657Z,98613.00
2022-09-17T07:33:38.356Z,98620.72
2022-09-17T07:36:11.371Z,98614.25
2022-09-17T07:38:38.760Z,98619.25
2022-09-17T07:41:12.957Z,98624.56
2022-09-17T07:43:41.415Z,98627.47
2022-09-17T07:46:17.932Z,98624.81
2022-09-17T07:48:47.404Z,98633.81
2022-09-17T07:51:30.702Z,98634.94
2022-09-17T07:53:59.516Z,98642.47
2022-09-17T07:56:27.947Z,98638.97
2022-09-17T07:58:55.446Z,98647.84
2022-09-17T08:01:23.033Z,98647.09
2022-09-17T08:03:54.654Z,98638.63
2022-09-17T08:06:30.918Z,98644.84
2022-09-17T08:09:00.161Z,98645.16
2022-09-17T08:14:17.381Z,98654.47
2022-09-17T08:16:46.409Z,98653.53
2022-09-17T08:19:13.397Z,98658.34
2022-09-17T08:21:41.144Z,98658.31
2022-09-17T08:24:08.644Z,98651.25
2022-09-17T08:26:36.369Z,98655.41
2022-09-17T08:29:03.325Z,98652.22
2022-09-17T08:31:30.608Z,98654.13
2022-09-17T08:33:57.929Z,98663.06
2022-09-17T08:36:26.210Z,98656.84
2022-09-17T08:38:54.933Z,98655.91
2022-09-17T08:41:40.439Z,98656.69
2022-09-17T08:44:26.337Z,98662.47
2022-09-17T08:47:13.164Z,98658.47
2022-09-17T08:49:56.032Z,98660.88
2022-09-17T08:53:21.238Z,98664.22
2022-09-17T08:56:13.297Z,98662.97
2022-09-17T08:59:14.488Z,98669.03
2022-09-17T09:01:59.222Z,98669.19
2022-09-17T09:04:59.051Z,98673.31
2022-09-17T09:07:42.410Z,98667.72
2022-09-17T09:10:37.919Z,98671.91
2022-09-17T09:13:05.237Z,98676.09
2022-09-17T09:15:45.642Z,98671.63
2022-09-17T09:18:22.083Z,98672.38
2022-09-17T09:20:55.678Z,98678.97
2022-09-17T09:23:57.393Z,98668.56
2022-09-17T09:26:48.120Z,98682.03
2022-09-17T09:30:02.022Z,98680.25
2022-09-17T09:33:14.526Z,98686.66
2022-09-17T09:35:44.760Z,98677.66
2022-09-17T09:38:35.757Z,98679.03
2022-09-17T09:41:15.612Z,98670.00
2022-09-17T09:44:06.063Z,98659.50
2022-09-17T09:47:13.361Z,98666.56
2022-09-17T09:50:18.839Z,98667.41
2022-09-17T09:53:24.120Z,98669.00
2022-09-17T09:56:22.135Z,98662.16
2022-09-17T09:58:49.181Z,98673.06
2022-09-17T10:01:23.059Z,98674.31
2022-09-17T10:03:54.050Z,98680.25
2022-09-17T10:06:21.403Z,98671.25
2022-09-17T10:08:57.318Z,98671.88
2022-09-17T10:11:34.166Z,98664.00
2022-09-17T10:14:29.269Z,98666.31
2022-09-17T10:17:22.128Z,98660.44
2022-09-17T10:20:12.000Z,98670.63
2022-09-17T10:22:46.896Z,98667.63
2022-09-17T10:25:35.059Z,98661.59
2022-09-17T10:28:21.120Z,98651.13
2022-09-17T10:31:10.242Z,98665.09
2022-09-17T10:34:01.023Z,98666.44
2022-09-17T10:36:44.428Z,98669.31
2022-09-17T10:39:27.536Z,98669.47
2022-09-17T10:41:59.811Z,98659.88
2022-09-17T10:44:36.923Z,98656.78
2022-09-17T10:47:33.434Z,98649.81
2022-09-17T10:50:18.761Z,98671.72
2022-09-17T10:52:54.221Z,98648.09
2022-09-17T10:55:51.017Z,98635.53
2022-09-17T10:58:42.267Z,98637.28
2022-09-17T11:01:48.330Z,98633.84
2022-09-17T11:04:27.516Z,98635.06
2022-09-17T11:07:49.381Z,98629.78
2022-09-17T11:10:46.238Z,98624.94
2022-09-17T11:13:43.067Z,98604.16
2022-09-17T11:16:45.376Z,98616.09
2022-09-17T11:20:07.224Z,98616.13
2022-09-17T11:23:07.185Z,98610.59
2022-09-17T11:26:00.883Z,98626.25
2022-09-17T11:28:46.917Z,98624.09
2022-09-17T11:31:51.268Z,98639.84
2022-09-17T11:34:36.215Z,98617.31
2022-09-17T11:37:24.294Z,98625.78
2022-09-17T11:40:00.649Z,98611.59
2022-09-17T11:42:57.821Z,98609.25
2022-09-17T11:45:39.946Z,98619.38
2022-09-17T11:48:18.477Z,98612.13
2022-09-17T11:51:20.608Z,98612.97
2022-09-17T11:54:05.158Z,98619.94
2022-09-17T11:57:07.689Z,98620.34
2022-09-17T12:00:17.962Z,98602.91
2022-09-17T12:03:07.464Z,98593.91
2022-09-17T12:05:51.415Z,98610.03
2022-09-17T12:08:48.005Z,98626.09
2022-09-17T12:11:26.848Z,98629.88
2022-09-17T12:14:09.626Z,98613.91
2022-09-17T12:16:43.559Z,98605.03
2022-09-17T12:19:35.928Z,98598.44
2022-09-17T12:22:17.959Z,98598.78
2022-09-17T12:24:45.438Z,98602.06
2022-09-17T12:27:54.386Z,98633.19
2022-09-17T12:30:38.371Z,98669.47
2022-09-17T12:33:23.273Z,98659.75
2022-09-17T12:36:19.654Z,98661.56
2022-09-17T12:39:11.474Z,98649.03
2022-09-17T12:42:12.974Z,98650.31
2022-09-17T12:45:19.581Z,98649.53
2022-09-17T12:48:10.972Z,98658.47
2022-09-17T12:51:07.189Z,98656.09
2022-09-17T12:53:52.858Z,98654.00
2022-09-17T12:56:32.775Z,98657.06
2022-09-17T12:59:05.447Z,98636.75
2022-09-17T13:01:51.765Z,98641.03
2022-09-17T13:05:00.463Z,98639.59
2022-09-17T13:08:20.251Z,98636.22
2022-09-17T13:11:24.177Z,98628.22
2022-09-17T13:14:09.235Z,98632.91
2022-09-17T13:17:07.525Z,98630.56
2022-09-17T13:20:14.605Z,98626.75
2022-09-17T13:22:49.641Z,98627.81
2022-09-17T13:25:20.023Z,98618.63
2022-09-17T13:27:50.009Z,98607.16
2022-09-17T13:30:19.157Z,98608.13
2022-09-17T13:32:51.509Z,98614.47
2022-09-17T13:35:18.263Z,98600.78
2022-09-17T13:37:59.578Z,98602.84
2022-09-17T13:40:34.267Z,98608.56
2022-09-17T13:43:04.321Z,98605.28
2022-09-17T13:45:33.808Z,98593.28
2022-09-17T13:48:37.084Z,98598.31
2022-09-17T13:51:32.366Z,98591.88
2022-09-17T13:54:07.599Z,98591.94
2022-09-17T13:56:41.333Z,98594.41
2022-09-17T13:59:18.084Z,98588.06
2022-09-17T14:02:31.011Z,98600.56
2022-09-17T14:05:33.912Z,98606.88
2022-09-17T14:08:46.743Z,98596.50
2022-09-17T14:11:22.891Z,98592.78
2022-09-17T14:14:05.293Z,98587.00
2022-09-17T14:16:46.205Z,98595.19
2022-09-17T14:19:16.109Z,98586.38
2022-09-17T14:22:35.913Z,98577.25
2022-09-17T14:25:02.870Z,98578.69
2022-09-17T14:27:57.030Z,98579.91
2022-09-17T14:30:31.914Z,98579.03
2022-09-17T14:33:10.238Z,98585.75
2022-09-17T14:35:42.258Z,98585.50
2022-09-17T14:38:27.285Z,98588.47
2022-09-17T14:41:17.860Z,98587.94
2022-09-17T14:43:57.039Z,98585.06
2022-09-17T14:46:40.606Z,98593.59
2022-09-17T14:49:35.925Z,98585.09
2022-09-17T14:52:30.405Z,98592.72
2022-09-17T14:55:31.752Z,98580.75
2022-09-17T14:58:04.899Z,98580.97
2022-09-17T15:00:38.760Z,98575.50
2022-09-17T15:03:06.923Z,98572.09
2022-09-17T15:05:43.286Z,98571.03
2022-09-17T15:08:10.070Z,98574.91
2022-09-17T15:10:59.955Z,98583.34
2022-09-17T15:13:35.376Z,98570.97
2022-09-17T15:16:25.719Z,98565.72
2022-09-17T15:18:54.255Z,98564.69
2022-09-17T15:21:50.638Z,98564.69
2022-09-17T15:24:44.598Z,98573.75
2022-09-17T15:27:38.235Z,98569.09
2022-09-17T15:30:20.761Z,98565.53
2022-09-17T15:33:01.323Z,98574.63
2022-09-17T15:35:32.453Z,98566.16
2022-09-17T15:40:49.725Z,98566.84
2022-09-17T15:43:30.674Z,98568.84
2022-09-17T15:46:01.441Z,98566.13
2022-09-17T15:48:28.139Z,98551.75
2022-09-17T15:50:58.765Z,98563.66
2022-09-17T15:53:35.220Z,98553.81
2022-09-17T15:56:08.693Z,98563.72
2022-09-17T15:59:01.599Z,98549.19
2022-09-17T16:01:53.573Z,98558.41
2022-09-17T16:04:35.002Z,98558.13
2022-09-17T16:07:27.952Z,98562.22
2022-09-17T16:09:56.547Z,98558.88
2022-09-17T16:12:26.937Z,98565.25
2022-09-17T16:14:57.168Z,98567.88
2022-09-17T16:17:35.701Z,98568.94
2022-09-17T16:20:16.363Z,98567.41
2022-09-17T16:22:44.722Z,98555.41
2022-09-17T16:25:12.022Z,98556.53
2022-09-17T16:28:08.465Z,98563.44
2022-09-17T16:30:35.860Z,98572.69
2022-09-17T16:33:04.076Z,98592.28
2022-09-17T16:35:30.952Z,98589.34
2022-09-17T16:37:57.885Z,98583.53
2022-09-17T16:40:28.195Z,98588.59
2022-09-17T16:42:55.812Z,98604.63
2022-09-17T16:45:26.776Z,98597.75
2022-09-17T16:47:56.411Z,98591.00
2022-09-17T16:50:25.167Z,98604.50
2022-09-17T16:52:53.447Z,98593.94
2022-09-17T16:55:21.863Z,98591.03
2022-09-17T16:57:48.669Z,98599.06
2022-09-17T17:00:20.226Z,98605.13
2022-09-17T17:02:57.514Z,98605.78
2022-09-17T17:05:26.474Z,98608.00
2022-09-17T17:07:55.222Z,98604.16
2022-09-17T17:10:27.690Z,98615.72
2022-09-17T17:12:54.647Z,98638.63
2022-09-17T17:15:22.429Z,98652.06
2022-09-17T17:17:49.906Z,98647.28
2022-09-17T17:20:17.177Z,98647.88
2022-09-17T17:22:45.072Z,98644.34
2022-09-17T17:25:14.302Z,98632.34
2022-09-17T17:27:41.938Z,98643.72
2022-09-17T17:30:10.291Z,98639.53
2022-09-17T17:32:37.543Z,98637.75
2022-09-17T17:35:06.468Z,98638.72
2022-09-17T17:37:33.341Z,98639.53
2022-09-17T17:40:01.920Z,98638.28
2022-09-17T17:42:35.629Z,98637.78
2022-09-17T17:45:02.892Z,98636.03
2022-09-17T17:47:29.901Z,98630.59
2022-09-17T17:49:56.751Z,98644.19
2022-09-17T17:52:23.630Z,98643.38
2022-09-17T17:54:50.871Z,98650.72
2022-09-17T17:57:17.900Z,98646.75
2022-09-17T17:59:44.830Z,98658.13
2022-09-17T18:02:12.189Z,98661.94
2022-09-17T18:04:39.114Z,98656.22
2022-09-17T18:07:06.185Z,98666.91
2022-09-17T18:09:33.422Z,98665.50
2022-09-17T18:12:00.297Z,98664.69
2022-09-17T18:14:27.392Z,98671.09
2022-09-17T18:16:54.395Z,98660.34
2022-09-17T18:19:21.236Z,98663.88
2022-09-17T18:21:48.061Z,98661.47
2022-09-17T18:24:14.965Z,98664.38
2022-09-17T18:26:41.861Z,98657.00
2022-09-17T18:29:09.308Z,98652.03
2022-09-17T18:31:37.723Z,98667.06
2022-09-17T18:34:10.733Z,98663.22
2022-09-17T18:36:39.466Z,98675.06
2022-09-17T18:39:44.883Z,98685.28
2022-09-17T18:41:58.005Z,98703.22
2022-09-17T18:44:25.301Z,98723.19
2022-09-17T18:46:52.136Z,98793.44
2022-09-17T18:49:18.956Z,98760.78
2022-09-17T18:51:46.144Z,98773.31
2022-09-17T18:54:14.750Z,98794.34
2022-09-17T18:56:41.770Z,98801.19
2022-09-17T18:59:12.190Z,98762.34
2022-09-17T19:01:39.248Z,98752.94
2022-09-17T19:04:07.622Z,98746.34
2022-09-17T19:06:35.044Z,98764.31
2022-09-17T19:09:04.691Z,98758.00
2022-09-17T19:11:31.594Z,98759.22
2022-09-17T19:13:58.591Z,98764.25
2022-09-17T19:16:25.879Z,98768.28
2022-09-17T19:18:52.905Z,98775.41
2022-09-17T19:21:21.620Z,98775.22
2022-09-17T19:23:51.423Z,98769.19
2022-09-17T19:26:22.387Z,98772.38
2022-09-17T19:28:58.036Z,98783.13
2022-09-17T19:31:26.662Z,98778.41
2022-09-17T19:33:54.123Z,98784.88
2022-09-17T19:36:21.335Z,98783.84
2022-09-17T19:38:51.138Z,98789.25
2022-09-17T19:41:23.133Z,98772.56
2022-09-17T19:43:54.945Z,98779.09
2022-09-17T19:46:25.227Z,98790.03
2022-09-17T19:48:55.862Z,98789.44
2022-09-17T19:51:25.935Z,98791.13
2022-09-17T19:53:53.262Z,98792.66
2022-09-17T19:56:23.813Z,98797.28
2022-09-17T19:58:51.233Z,98797.66
2022-09-17T20:01:19.364Z,98799.00
2022-09-17T20:03:48.161Z,98796.47
2022-09-17T20:06:18.234Z,98799.50
2022-09-17T20:08:57.461Z,98797.28
2022-09-17T20:11:25.508Z,98803.72
2022-09-17T20:14:06.381Z,98791.69
2022-09-17T20:16:36.057Z,98801.84
2022-09-17T20:19:03.735Z,98801.25
2022-09-17T20:21:31.044Z,98799.25
2022-09-17T20:23:59.012Z,98790.09
2022-09-17T20:26:27.297Z,98799.13
2022-09-17T20:28:55.591Z,98789.41
2022-09-17T20:31:26.203Z,98794.09
2022-09-17T20:33:56.309Z,98798.31
2022-09-17T20:36:26.866Z,98808.56
2022-09-17T20:39:11.588Z,98805.88
2022-09-17T20:41:41.429Z,98814.41
2022-09-17T20:44:08.293Z,98801.94
2022-09-17T20:46:35.372Z,98813.78
2022-09-17T20:49:02.306Z,98805.66
2022-09-17T20:51:32.589Z,98807.56
2022-09-17T20:54:00.949Z,98814.13
2022-09-17T20:56:31.752Z,98809.47
2022-09-17T20:59:09.329Z,98799.09
2022-09-17T21:01:37.670Z,98805.53
2022-09-17T21:04:07.468Z,98810.97
2022-09-17T21:06:38.690Z,98807.25
2022-09-17T21:09:07.414Z,98814.22
2022-09-17T21:11:35.069Z,98822.66
2022-09-17T21:14:02.794Z,98823.16
2022-09-17T21:16:31.083Z,98825.66
2022-09-17T21:19:02.341Z,98823.44
2022-09-17T21:21:30.301Z,98831.09
2022-09-17T21:24:01.417Z,98831.69
2022-09-17T21:26:29.154Z,98839.34
2022-09-17T21:28:57.338Z,98838.06
2022-09-17T21:31:32.097Z,98840.75
2022-09-17T21:34:02.957Z,98838.84
2022-09-17T21:36:34.001Z,98834.22
2022-09-17T21:39:16.760Z,98844.88
2022-09-17T21:41:45.536Z,98839.22
2022-09-17T21:44:13.494Z,98843.28
2022-09-17T21:46:42.678Z,98842.66
2022-09-17T21:49:10.197Z,98846.50
2022-09-17T21:51:42.245Z,98847.81
2022-09-17T21:54:16.678Z,98840.56
2022-09-17T21:56:45.142Z,98837.63
2022-09-17T21:59:14.444Z,98836.72
2022-09-17T22:01:48.498Z,98853.03
2022-09-17T22:04:20.049Z,98840.34
2022-09-17T22:06:49.410Z,98849.09
2022-09-17T22:09:22.849Z,98837.13
2022-09-17T22:11:51.506Z,98840.06
2022-09-17T22:14:24.613Z,98837.13
2022-09-17T22:16:54.318Z,98835.34
2022-09-17T22:19:23.863Z,98844.47
2022-09-17T22:21:56.769Z,98830.81
2022-09-17T22:24:24.678Z,98848.41
2022-09-17T22:26:57.907Z,98833.81
2022-09-17T22:29:30.152Z,98840.88
2022-09-17T22:31:57.381Z,98840.75
2022-09-17T22:34:25.779Z,98841.25
2022-09-17T22:36:52.762Z,98845.59
2022-09-17T22:39:22.963Z,98838.03
2022-09-17T22:41:50.475Z,98839.44
2022-09-17T22:44:20.090Z,98845.28
2022-09-17T22:46:50.929Z,98847.69
2022-09-17T22:49:19.246Z,98846.28
2022-09-17T22:51:47.280Z,98845.59
2022-09-17T22:54:16.813Z,98844.97
2022-09-17T22:56:44.472Z,98839.78
2022-09-17T22:59:11.996Z,98845.38
2022-09-17T23:01:40.604Z,98845.28
2022-09-17T23:04:08.081Z,98845.38
2022-09-17T23:06:38.495Z,98841.16
2022-09-17T23:09:06.711Z,98844.78
2022-09-17T23:11:38.810Z,98842.38
2022-09-17T23:14:11.917Z,98842.28
2022-09-17T23:16:47.918Z,98844.78
2022-09-17T23:19:19.822Z,98848.69
2022-09-17T23:21:47.428Z,98849.31
2022-09-17T23:24:20.716Z,98846.88
2022-09-17T23:26:49.259Z,98854.34
2022-09-17T23:29:16.623Z,98848.09
2022-09-17T23:31:43.494Z,98839.66
2022-09-17T23:34:10.762Z,98844.25
2022-09-17T23:36:39.977Z,98857.94
2022-09-17T23:39:09.089Z,98859.56
2022-09-17T23:41:40.516Z,98843.97
2022-09-17T23:44:14.957Z,98851.63
2022-09-17T23:46:44.699Z,98856.34
2022-09-17T23:49:13.864Z,98850.69
2022-09-17T23:51:41.229Z,98853.13
2022-09-17T23:54:10.569Z,98852.81
2022-09-17T23:56:37.501Z,98854.13
2022-09-17T23:59:04.915Z,98863.38
